Terminal Aerodrome Forecast
Issued by NWS Twin Cities, MN

Home | Current Version | Previous Version | Text Only | Print | Product List | Glossary On
Versions: 1 2 3 4 5 6 7 8 9 10 11 12 13 14
000
FTUS43 KMPX 240520
TAFSTC
TAF
KSTC 240520Z 2406/2506 30009KT P6SM SCT070
     FM241600 30014G21KT P6SM VCSH SCT040 OVC050
     FM250200 30009KT P6SM BKN050=

USA.gov is the U.S. government's official web portal to all federal, state and local government web resources and services.